createdAt,value
2023-03-02T00:00:22.664Z,1.41
2023-03-02T00:02:49.151Z,1.39
2023-03-02T00:05:15.487Z,1.35
2023-03-02T00:07:41.818Z,1.35
2023-03-02T00:10:08.938Z,1.35
2023-03-02T00:12:35.269Z,1.34
2023-03-02T00:15:01.869Z,1.35
2023-03-02T00:17:28.178Z,1.35
2023-03-02T00:19:55.829Z,1.35
2023-03-02T00:22:22.149Z,1.36
2023-03-02T00:24:48.446Z,1.37
2023-03-02T00:27:14.735Z,1.38
2023-03-02T00:29:41.077Z,1.38
2023-03-02T00:32:07.409Z,1.38
2023-03-02T00:34:33.828Z,1.38
2023-03-02T00:37:00.131Z,1.38
2023-03-02T00:39:26.427Z,1.36
2023-03-02T00:41:52.766Z,1.36
2023-03-02T00:44:19.065Z,1.38
2023-03-02T00:46:45.871Z,1.39
2023-03-02T00:49:12.744Z,1.38
2023-03-02T00:51:39.078Z,1.38
2023-03-02T00:54:05.522Z,1.38
2023-03-02T00:56:32.161Z,1.39
2023-03-02T00:58:58.592Z,1.38
2023-03-02T01:01:24.866Z,1.40
2023-03-02T01:03:51.247Z,1.38
2023-03-02T01:06:20.826Z,1.38
2023-03-02T01:08:47.367Z,1.34
2023-03-02T01:11:22.511Z,1.35
2023-03-02T01:13:49.593Z,1.36
2023-03-02T01:16:16.241Z,1.37
2023-03-02T01:18:42.753Z,1.37
2023-03-02T01:21:11.897Z,1.35
2023-03-02T01:23:41.423Z,1.32
2023-03-02T01:26:07.968Z,1.30
2023-03-02T01:28:34.257Z,1.32
2023-03-02T01:31:00.657Z,1.32
2023-03-02T01:33:26.984Z,1.30
2023-03-02T01:35:53.316Z,1.27
2023-03-02T01:38:19.773Z,1.25
2023-03-02T01:40:46.143Z,1.22
2023-03-02T01:43:15.125Z,1.18
2023-03-02T01:45:44.126Z,1.19
2023-03-02T01:48:12.522Z,1.17
2023-03-02T01:50:39.642Z,1.17
2023-03-02T01:53:06.581Z,1.15
2023-03-02T01:55:33.836Z,1.12
2023-03-02T01:58:02.824Z,1.09
2023-03-02T02:00:34.232Z,1.06
2023-03-02T02:03:05.145Z,1.05
2023-03-02T02:05:31.531Z,1.04
2023-03-02T02:07:57.811Z,1.02
2023-03-02T02:10:24.282Z,0.99
2023-03-02T02:12:50.579Z,0.96
2023-03-02T02:15:17.054Z,0.93
2023-03-02T02:17:43.545Z,0.93
2023-03-02T02:20:21.005Z,0.95
2023-03-02T02:23:18.944Z,0.92
2023-03-02T02:25:50.965Z,0.88
2023-03-02T02:28:23.443Z,0.86
2023-03-02T02:31:04.081Z,0.87
2023-03-02T02:33:32.595Z,0.87
2023-03-02T02:36:05.262Z,0.82
2023-03-02T02:38:33.359Z,0.80
2023-03-02T02:41:03.147Z,0.80
2023-03-02T02:43:31.226Z,0.78
2023-03-02T02:45:58.823Z,0.75
2023-03-02T02:48:27.637Z,0.70
2023-03-02T02:50:54.871Z,0.66
2023-03-02T02:53:29.087Z,0.64
2023-03-02T02:55:57.735Z,0.63
2023-03-02T02:58:31.801Z,0.56
2023-03-02T03:00:59.326Z,0.52
2023-03-02T03:03:30.632Z,0.45
2023-03-02T03:06:00.051Z,0.41
2023-03-02T03:08:41.499Z,0.37
2023-03-02T03:11:08.947Z,0.33
2023-03-02T03:13:35.623Z,0.31
2023-03-02T03:16:02.833Z,0.28
2023-03-02T03:18:29.573Z,0.25
2023-03-02T03:20:55.866Z,0.25
2023-03-02T03:23:22.289Z,0.25
2023-03-02T03:25:48.808Z,0.23
2023-03-02T03:28:15.220Z,0.17
2023-03-02T03:30:41.654Z,0.10
2023-03-02T03:33:07.957Z,0.03
2023-03-02T03:35:34.308Z,0.01
2023-03-02T03:38:00.710Z,-0.04
2023-03-02T03:40:27.088Z,-0.05
2023-03-02T03:42:53.381Z,-0.06
2023-03-02T03:45:19.788Z,-0.08
2023-03-02T03:47:46.092Z,-0.12
2023-03-02T03:50:12.488Z,-0.19
2023-03-02T03:52:38.781Z,-0.22
2023-03-02T03:55:05.581Z,-0.24
2023-03-02T03:57:31.982Z,-0.26
2023-03-02T03:59:58.303Z,-0.29
2023-03-02T04:02:24.607Z,-0.31
2023-03-02T04:04:51.099Z,-0.31
2023-03-02T04:07:17.739Z,-0.35
2023-03-02T04:09:44.240Z,-0.38
2023-03-02T04:12:11.297Z,-0.43
2023-03-02T04:14:37.672Z,-0.47
2023-03-02T04:17:04.754Z,-0.50
2023-03-02T04:19:31.673Z,-0.53
2023-03-02T04:21:58.041Z,-0.56
2023-03-02T04:24:24.844Z,-0.58
2023-03-02T04:26:51.632Z,-0.60
2023-03-02T04:29:18.480Z,-0.63
2023-03-02T04:31:44.838Z,-0.64
2023-03-02T04:34:11.260Z,-0.70
2023-03-02T04:36:39.648Z,-0.75
2023-03-02T04:39:07.022Z,-0.78
2023-03-02T04:41:33.569Z,-0.82
2023-03-02T04:43:59.990Z,-0.86
2023-03-02T04:46:27.613Z,-0.86
2023-03-02T04:48:54.735Z,-0.90
2023-03-02T04:51:25.594Z,-0.90
2023-03-02T04:53:53.734Z,-0.90
2023-03-02T04:56:20.322Z,-0.91
2023-03-02T04:58:46.883Z,-0.93
2023-03-02T05:01:15.480Z,-0.95
2023-03-02T05:03:41.868Z,-0.96
2023-03-02T05:06:08.762Z,-0.99
2023-03-02T05:08:35.141Z,-1.03
2023-03-02T05:11:01.707Z,-1.05
2023-03-02T05:13:28.203Z,-1.05
2023-03-02T05:15:54.980Z,-1.02
2023-03-02T05:18:21.362Z,-1.01
2023-03-02T05:20:47.669Z,-0.99
2023-03-02T05:23:15.454Z,-0.99
2023-03-02T05:25:41.787Z,-0.97
2023-03-02T05:28:08.134Z,-0.99
2023-03-02T05:30:34.479Z,-1.00
2023-03-02T05:33:00.780Z,-0.99
2023-03-02T05:35:27.082Z,-0.98
2023-03-02T05:37:53.422Z,-0.98
2023-03-02T05:40:20.369Z,-0.98
2023-03-02T05:42:46.783Z,-0.97
2023-03-02T05:45:22.699Z,-0.97
2023-03-02T05:47:49.370Z,-0.99
2023-03-02T05:50:15.786Z,-1.01
2023-03-02T05:52:42.093Z,-1.02
2023-03-02T05:55:08.870Z,-1.03
2023-03-02T05:57:35.537Z,-1.02
2023-03-02T06:00:02.004Z,-1.02
2023-03-02T06:02:28.303Z,-1.01
2023-03-02T06:04:54.595Z,-1.00
2023-03-02T06:07:20.945Z,-0.99
2023-03-02T06:09:47.268Z,-0.95
2023-03-02T06:12:13.808Z,-0.94
2023-03-02T06:14:40.290Z,-0.93
2023-03-02T06:17:06.689Z,-0.88
2023-03-02T06:19:33.172Z,-0.86
2023-03-02T06:21:59.567Z,-0.81
2023-03-02T06:24:25.855Z,-0.79
2023-03-02T06:26:55.198Z,-0.76
2023-03-02T06:29:22.428Z,-0.70
2023-03-02T06:31:48.962Z,-0.64
2023-03-02T06:34:15.315Z,-0.59
2023-03-02T06:36:41.656Z,-0.51
2023-03-02T06:39:08.909Z,-0.36
2023-03-02T06:41:36.182Z,-0.20
2023-03-02T06:44:02.511Z,-0.05
2023-03-02T06:46:28.825Z,0.14
2023-03-02T06:48:55.257Z,0.35
2023-03-02T06:51:21.548Z,0.56
2023-03-02T06:53:47.889Z,0.83
2023-03-02T06:56:14.262Z,1.11
2023-03-02T06:58:40.579Z,1.35
2023-03-02T07:01:06.894Z,1.50
2023-03-02T07:03:33.803Z,1.67
2023-03-02T07:06:00.148Z,1.81
2023-03-02T07:08:26.470Z,1.95
2023-03-02T07:10:52.749Z,2.05
2023-03-02T07:13:19.409Z,2.14
2023-03-02T07:15:45.752Z,2.24
2023-03-02T07:18:12.053Z,2.33
2023-03-02T07:20:38.429Z,2.48
2023-03-02T07:23:06.177Z,2.56
2023-03-02T07:25:32.548Z,2.63
2023-03-02T07:27:58.896Z,2.72
2023-03-02T07:30:25.624Z,2.78
2023-03-02T07:32:52.033Z,2.93
2023-03-02T07:35:18.581Z,3.11
2023-03-02T07:37:45.000Z,3.20
2023-03-02T07:40:12.644Z,3.21
2023-03-02T07:42:39.116Z,3.25
2023-03-02T07:45:06.204Z,3.28
2023-03-02T07:47:33.191Z,3.37
2023-03-02T07:49:59.601Z,3.42
2023-03-02T07:52:25.890Z,3.48
2023-03-02T07:54:52.266Z,3.60
2023-03-02T07:57:18.590Z,3.67
2023-03-02T07:59:44.993Z,3.78
2023-03-02T08:02:16.236Z,3.81
2023-03-02T08:04:42.635Z,3.83
2023-03-02T08:07:09.284Z,3.93
2023-03-02T08:09:35.601Z,4.04
2023-03-02T08:12:01.929Z,4.12
2023-03-02T08:14:28.245Z,4.20
2023-03-02T08:16:54.522Z,4.25
2023-03-02T08:19:20.926Z,4.31
2023-03-02T08:21:47.345Z,4.35
2023-03-02T08:24:13.671Z,4.42
2023-03-02T08:26:40.434Z,4.55
2023-03-02T08:29:07.138Z,4.68
2023-03-02T08:31:34.091Z,4.71
2023-03-02T08:34:00.629Z,4.83
2023-03-02T08:36:26.929Z,4.99
2023-03-02T08:38:54.702Z,5.14
2023-03-02T08:41:22.305Z,5.16
2023-03-02T08:43:49.371Z,5.13
2023-03-02T08:46:18.969Z,5.10
2023-03-02T08:48:46.346Z,5.20
2023-03-02T08:51:21.540Z,5.30
2023-03-02T08:53:49.747Z,5.42
2023-03-02T08:56:21.962Z,5.49
2023-03-02T08:58:49.774Z,5.44
2023-03-02T09:01:18.459Z,5.53
2023-03-02T09:03:45.190Z,5.69
2023-03-02T09:06:11.841Z,5.72
2023-03-02T09:08:38.572Z,5.75
2023-03-02T09:11:05.577Z,5.77
2023-03-02T09:13:32.828Z,5.91
2023-03-02T09:15:59.353Z,5.94
2023-03-02T09:18:25.644Z,6.01
2023-03-02T09:20:53.020Z,6.10
2023-03-02T09:23:20.441Z,6.21
2023-03-02T09:25:46.761Z,6.18
2023-03-02T09:28:13.163Z,6.21
2023-03-02T09:30:39.510Z,6.31
2023-03-02T09:33:05.916Z,6.44
2023-03-02T09:35:32.348Z,6.44
2023-03-02T09:37:58.789Z,6.49
2023-03-02T09:40:27.821Z,6.54
2023-03-02T09:43:23.627Z,6.59
2023-03-02T09:46:25.404Z,6.67
2023-03-02T09:49:19.633Z,6.80
2023-03-02T09:52:07.235Z,6.89
2023-03-02T09:54:34.955Z,7.04
2023-03-02T09:57:01.887Z,7.16
2023-03-02T09:59:41.624Z,7.25
2023-03-02T10:02:28.857Z,7.36
2023-03-02T10:04:58.172Z,7.41
2023-03-02T10:07:29.069Z,7.53
2023-03-02T10:10:03.794Z,7.60
2023-03-02T10:12:42.052Z,7.73
2023-03-02T10:15:12.287Z,7.78
2023-03-02T10:17:48.317Z,7.91
2023-03-02T10:20:27.264Z,8.06
2023-03-02T10:23:03.340Z,8.19
2023-03-02T10:25:40.626Z,8.08
2023-03-02T10:28:17.484Z,8.05
2023-03-02T10:30:45.850Z,8.10
2023-03-02T10:33:16.034Z,8.19
2023-03-02T10:35:47.670Z,8.32
2023-03-02T10:38:17.266Z,8.46
2023-03-02T10:41:10.964Z,8.47
2023-03-02T10:43:47.007Z,8.49
2023-03-02T10:46:14.225Z,8.55
2023-03-02T10:48:55.329Z,8.69
2023-03-02T10:51:30.226Z,8.82
2023-03-02T10:54:10.514Z,8.87
2023-03-02T10:56:37.393Z,9.02
2023-03-02T10:59:25.139Z,9.12
2023-03-02T11:02:12.381Z,9.21
2023-03-02T11:04:39.018Z,9.33
2023-03-02T11:07:09.912Z,9.45
2023-03-02T11:09:36.207Z,9.59
2023-03-02T11:12:02.699Z,9.43
2023-03-02T11:14:29.147Z,9.49
2023-03-02T11:16:56.612Z,9.62
2023-03-02T11:19:30.936Z,9.69
2023-03-02T11:22:26.176Z,9.70
2023-03-02T11:24:57.834Z,9.78
2023-03-02T11:27:29.021Z,9.93
2023-03-02T11:30:04.491Z,10.12
2023-03-02T11:32:43.198Z,10.27
2023-03-02T11:35:14.512Z,10.43
2023-03-02T11:37:51.230Z,10.46
2023-03-02T11:40:32.961Z,10.31
2023-03-02T11:43:01.546Z,10.38
2023-03-02T11:45:43.906Z,10.41
2023-03-02T11:48:23.038Z,10.47
2023-03-02T11:51:00.247Z,10.56
2023-03-02T11:53:40.579Z,10.75
2023-03-02T11:56:07.026Z,10.82
2023-03-02T11:58:34.289Z,10.84
2023-03-02T12:01:01.984Z,10.88
2023-03-02T12:03:38.392Z,10.93
2023-03-02T12:06:26.416Z,11.07
2023-03-02T12:09:06.307Z,11.13
2023-03-02T12:11:36.959Z,11.23
2023-03-02T12:14:24.659Z,11.33
2023-03-02T12:16:51.691Z,11.44
2023-03-02T12:19:18.005Z,11.58
2023-03-02T12:22:06.338Z,11.68
2023-03-02T12:24:35.476Z,11.71
2023-03-02T12:27:03.730Z,11.81
2023-03-02T12:29:45.338Z,11.79
2023-03-02T12:32:27.447Z,11.80
2023-03-02T12:34:59.804Z,11.86
2023-03-02T12:37:29.584Z,11.91
2023-03-02T12:40:23.894Z,11.93
2023-03-02T12:43:10.908Z,11.96
2023-03-02T12:45:58.670Z,11.83
2023-03-02T12:48:31.826Z,11.81
2023-03-02T12:51:03.772Z,11.86
2023-03-02T12:53:30.543Z,11.97
2023-03-02T12:55:57.499Z,12.06
2023-03-02T12:58:26.678Z,12.04
2023-03-02T13:00:59.037Z,12.03
2023-03-02T13:03:27.574Z,12.17
2023-03-02T13:06:01.653Z,12.09
2023-03-02T13:08:29.211Z,12.03
2023-03-02T13:10:57.891Z,11.97
2023-03-02T13:13:33.798Z,11.95
2023-03-02T13:16:05.977Z,11.90
2023-03-02T13:18:35.211Z,11.76
2023-03-02T13:21:03.875Z,11.71
2023-03-02T13:23:32.582Z,11.65
2023-03-02T13:26:05.437Z,11.73
2023-03-02T13:28:33.422Z,11.82
2023-03-02T13:31:07.057Z,11.89
2023-03-02T13:33:35.373Z,11.93
2023-03-02T13:36:02.074Z,11.97
2023-03-02T13:38:35.555Z,11.98
2023-03-02T13:41:01.794Z,11.78
2023-03-02T13:43:37.406Z,11.84
2023-03-02T13:46:15.495Z,11.98
2023-03-02T13:48:57.602Z,11.93
2023-03-02T13:51:47.146Z,11.86
2023-03-02T13:54:27.346Z,11.96
2023-03-02T13:56:53.889Z,11.96
2023-03-02T13:59:21.595Z,11.97
2023-03-02T14:01:48.042Z,11.97
2023-03-02T14:04:16.559Z,11.83
2023-03-02T14:06:43.722Z,11.79
2023-03-02T14:09:10.197Z,11.81
2023-03-02T14:11:40.613Z,11.86
2023-03-02T14:14:08.432Z,11.78
2023-03-02T14:16:34.756Z,11.85
2023-03-02T14:19:01.610Z,11.81
2023-03-02T14:21:28.461Z,11.73
2023-03-02T14:23:55.130Z,11.70
2023-03-02T14:26:35.192Z,11.64
2023-03-02T14:29:19.589Z,11.69
2023-03-02T14:31:45.996Z,11.83
2023-03-02T14:34:14.134Z,11.76
2023-03-02T14:36:41.685Z,11.66
2023-03-02T14:39:20.425Z,11.67
2023-03-02T14:41:53.435Z,11.74
2023-03-02T14:44:21.615Z,11.78
2023-03-02T14:46:48.014Z,11.74
2023-03-02T14:49:14.344Z,11.72
2023-03-02T14:51:43.149Z,11.66
2023-03-02T14:54:14.591Z,11.70
2023-03-02T14:56:42.622Z,11.79
2023-03-02T14:59:12.203Z,11.89
2023-03-02T15:01:38.520Z,11.87
2023-03-02T15:04:05.049Z,11.81
2023-03-02T15:06:35.074Z,11.81
2023-03-02T15:09:01.598Z,11.73
2023-03-02T15:11:28.644Z,11.79
2023-03-02T15:13:55.083Z,11.77
2023-03-02T15:16:22.181Z,11.63
2023-03-02T15:18:52.957Z,11.63
2023-03-02T15:21:22.361Z,11.61
2023-03-02T15:23:48.955Z,11.65
2023-03-02T15:26:15.619Z,11.61
2023-03-02T15:28:41.966Z,11.57
2023-03-02T15:31:14.533Z,11.58
2023-03-02T15:33:41.910Z,11.52
2023-03-02T15:36:08.489Z,11.50
2023-03-02T15:38:35.754Z,11.49
2023-03-02T15:41:12.060Z,11.48
2023-03-02T15:43:38.897Z,11.42
2023-03-02T15:46:06.338Z,11.47
2023-03-02T15:48:32.597Z,11.41
2023-03-02T15:51:00.321Z,11.34
2023-03-02T15:53:28.057Z,11.33
2023-03-02T15:55:54.760Z,11.32
2023-03-02T15:58:21.180Z,11.24
2023-03-02T16:00:51.570Z,11.25
2023-03-02T16:03:17.879Z,11.18
2023-03-02T16:05:44.203Z,11.13
2023-03-02T16:08:10.854Z,11.07
2023-03-02T16:10:37.231Z,11.02
2023-03-02T16:13:05.090Z,10.98
2023-03-02T16:15:37.116Z,10.92
2023-03-02T16:18:03.498Z,10.84
2023-03-02T16:20:29.835Z,10.82
2023-03-02T16:22:56.133Z,10.72
2023-03-02T16:25:22.468Z,10.71
2023-03-02T16:27:48.769Z,10.65
2023-03-02T16:30:16.152Z,10.56
2023-03-02T16:32:42.582Z,10.50
2023-03-02T16:35:09.385Z,10.46
2023-03-02T16:37:35.814Z,10.43
2023-03-02T16:40:02.138Z,10.31
2023-03-02T16:42:28.510Z,10.21
2023-03-02T16:44:54.841Z,10.13
2023-03-02T16:47:21.275Z,10.07
2023-03-02T16:49:47.586Z,10.01
2023-03-02T16:52:13.889Z,9.90
2023-03-02T16:54:40.381Z,9.79
2023-03-02T16:57:06.681Z,9.75
2023-03-02T16:59:32.972Z,9.70
2023-03-02T17:01:59.306Z,9.57
2023-03-02T17:04:25.620Z,9.51
2023-03-02T17:07:00.574Z,9.48
2023-03-02T17:09:27.494Z,9.38
2023-03-02T17:11:53.812Z,9.31
2023-03-02T17:14:20.176Z,9.23
2023-03-02T17:16:46.508Z,9.14
2023-03-02T17:19:12.808Z,9.05
2023-03-02T17:21:39.172Z,8.97
2023-03-02T17:24:05.939Z,8.88
2023-03-02T17:26:32.319Z,8.85
2023-03-02T17:37:44.477Z,8.66
2023-03-02T17:40:15.903Z,8.57
2023-03-02T17:42:42.349Z,8.52
2023-03-02T17:45:15.001Z,8.42
2023-03-02T17:47:41.352Z,8.35
2023-03-02T17:50:08.262Z,8.29
2023-03-02T17:52:34.533Z,8.25
2023-03-02T17:55:00.818Z,8.19
2023-03-02T17:57:27.091Z,8.11
2023-03-02T17:59:53.400Z,8.07
2023-03-02T18:02:19.725Z,8.00
2023-03-02T18:04:46.083Z,7.92
2023-03-02T18:07:13.221Z,7.85
2023-03-02T18:09:39.616Z,7.78
2023-03-02T18:12:06.298Z,7.72
2023-03-02T18:14:32.641Z,7.64
2023-03-02T18:16:59.205Z,7.57
2023-03-02T18:19:25.521Z,7.51
2023-03-02T18:21:51.921Z,7.45
2023-03-02T18:24:18.258Z,7.38
2023-03-02T18:26:44.603Z,7.31
2023-03-02T18:29:11.159Z,7.24
2023-03-02T18:31:37.520Z,7.17
2023-03-02T18:34:04.071Z,7.09
2023-03-02T18:36:30.374Z,7.04
2023-03-02T18:38:56.811Z,6.99
2023-03-02T18:41:24.150Z,6.92
2023-03-02T18:43:51.101Z,6.83
2023-03-02T18:46:26.442Z,6.76
2023-03-02T18:48:54.794Z,6.69
2023-03-02T18:51:22.597Z,6.63
2023-03-02T18:53:49.965Z,6.58
2023-03-02T18:56:16.815Z,6.53
2023-03-02T18:58:43.627Z,6.47
2023-03-02T19:01:09.969Z,6.42
2023-03-02T19:03:36.816Z,6.37
2023-03-02T19:06:03.784Z,6.27
2023-03-02T19:08:30.238Z,6.19
2023-03-02T19:10:56.756Z,6.10
2023-03-02T19:13:23.365Z,6.04
2023-03-02T19:15:49.926Z,5.97
2023-03-02T19:18:21.135Z,5.92
2023-03-02T19:20:49.517Z,5.87
2023-03-02T19:23:16.361Z,5.82
2023-03-02T19:25:43.842Z,5.78
2023-03-02T19:28:10.801Z,5.72
2023-03-02T19:30:37.382Z,5.65
2023-03-02T19:33:04.532Z,5.62
2023-03-02T19:35:30.921Z,5.59
2023-03-02T19:37:57.253Z,5.55
2023-03-02T19:40:27.171Z,5.50
2023-03-02T19:42:54.689Z,5.47
2023-03-02T19:45:24.673Z,5.45
2023-03-02T19:47:51.078Z,5.45
2023-03-02T19:50:18.777Z,5.47
2023-03-02T19:52:44.990Z,5.46
2023-03-02T19:55:13.526Z,5.47
2023-03-02T19:57:40.554Z,5.49
2023-03-02T20:00:13.020Z,5.50
2023-03-02T20:02:39.498Z,5.54
2023-03-02T20:05:07.015Z,5.52
2023-03-02T20:07:33.530Z,5.57
2023-03-02T20:09:59.852Z,5.61
2023-03-02T20:12:26.191Z,5.60
2023-03-02T20:14:52.726Z,5.59
2023-03-02T20:17:19.837Z,5.55
2023-03-02T20:19:47.094Z,5.46
2023-03-02T20:22:14.358Z,5.37
2023-03-02T20:24:41.803Z,5.31
2023-03-02T20:27:09.042Z,5.24
2023-03-02T20:29:38.172Z,5.16
2023-03-02T20:32:07.102Z,5.11
2023-03-02T20:34:33.500Z,5.09
2023-03-02T20:37:02.127Z,5.02
2023-03-02T20:39:36.046Z,4.98
2023-03-02T20:42:03.626Z,4.89
2023-03-02T20:44:30.130Z,4.89
2023-03-02T20:46:59.192Z,4.82
2023-03-02T20:49:28.167Z,4.73
2023-03-02T20:51:56.404Z,4.69
2023-03-02T20:54:27.564Z,4.65
2023-03-02T20:56:54.065Z,4.60
2023-03-02T20:59:21.946Z,4.55
2023-03-02T21:01:48.488Z,4.43
2023-03-02T21:04:14.877Z,4.36
2023-03-02T21:06:41.561Z,4.32
2023-03-02T21:09:09.425Z,4.28
2023-03-02T21:11:36.613Z,4.24
2023-03-02T21:14:03.818Z,4.20
2023-03-02T21:16:33.971Z,4.14
2023-03-02T21:19:00.308Z,4.10
2023-03-02T21:21:40.453Z,4.07
2023-03-02T21:24:08.144Z,3.99
2023-03-02T21:26:34.904Z,3.94
2023-03-02T21:29:01.207Z,3.91
2023-03-02T21:31:27.589Z,3.87
2023-03-02T21:33:54.118Z,3.80
2023-03-02T21:36:23.296Z,3.76
2023-03-02T21:38:51.053Z,3.74
2023-03-02T21:41:17.884Z,3.65
2023-03-02T21:43:44.330Z,3.60
2023-03-02T21:46:16.197Z,3.53
2023-03-02T21:48:42.856Z,3.52
2023-03-02T21:51:11.684Z,3.49
2023-03-02T21:53:38.016Z,3.45
2023-03-02T21:56:04.781Z,3.37
2023-03-02T21:58:31.139Z,3.35
2023-03-02T22:00:57.554Z,3.35
2023-03-02T22:03:23.960Z,3.30
2023-03-02T22:05:50.362Z,3.27
2023-03-02T22:08:18.340Z,3.21
2023-03-02T22:10:46.919Z,3.14
2023-03-02T22:13:13.187Z,3.12
2023-03-02T22:15:40.967Z,3.07
2023-03-02T22:18:14.782Z,3.03
2023-03-02T22:20:46.968Z,2.99
2023-03-02T22:23:16.558Z,2.98
2023-03-02T22:25:43.654Z,2.93
2023-03-02T22:28:25.233Z,2.87
2023-03-02T22:30:56.532Z,2.88
2023-03-02T22:33:25.838Z,2.83
2023-03-02T22:35:58.844Z,2.87
2023-03-02T22:38:30.339Z,2.80
2023-03-02T22:40:56.993Z,2.78
2023-03-02T22:43:31.153Z,2.71
2023-03-02T22:46:06.250Z,2.72
2023-03-02T22:48:35.201Z,2.71
2023-03-02T22:51:13.641Z,2.65
2023-03-02T22:53:55.155Z,2.63
2023-03-02T22:56:39.980Z,2.60
2023-03-02T22:59:25.092Z,2.56
2023-03-02T23:02:00.251Z,2.52
2023-03-02T23:04:31.810Z,2.47
2023-03-02T23:07:00.337Z,2.45
2023-03-02T23:09:29.893Z,2.40
2023-03-02T23:12:04.353Z,2.36
2023-03-02T23:14:44.674Z,2.35
2023-03-02T23:17:14.031Z,2.35
2023-03-02T23:19:40.733Z,2.35
2023-03-02T23:22:07.065Z,2.32
2023-03-02T23:24:33.384Z,2.30
2023-03-02T23:26:59.698Z,2.25
2023-03-02T23:29:26.102Z,2.20
2023-03-02T23:31:52.568Z,2.17
2023-03-02T23:34:19.079Z,2.18
2023-03-02T23:36:45.404Z,2.15
2023-03-02T23:39:12.603Z,2.10
2023-03-02T23:41:39.689Z,2.08
2023-03-02T23:44:06.897Z,2.06
2023-03-02T23:46:33.857Z,2.06
2023-03-02T23:49:00.967Z,2.04
2023-03-02T23:51:27.681Z,2.00
2023-03-02T23:53:54.452Z,2.01
2023-03-02T23:56:21.237Z,1.97
2023-03-02T23:58:47.770Z,1.95
